createdAt,value
2023-02-18T02:44:56.672Z,14.50
2023-02-18T02:50:10.543Z,12.20
2023-02-18T02:55:16.327Z,12.20
2023-02-18T03:00:55.296Z,12.20
2023-02-18T03:06:23.115Z,12.20
2023-02-18T03:11:32.689Z,12.10
2023-02-18T03:17:07.420Z,12.20
2023-02-18T03:22:17.501Z,12.20
2023-02-18T03:27:33.718Z,12.20
2023-02-18T03:32:36.409Z,12.10
2023-02-18T11:31:48.159Z,12.10
2023-02-18T11:36:52.453Z,16.60
2023-02-18T11:42:06.515Z,17.00
2023-02-18T11:47:14.810Z,16.80
2023-02-18T11:52:27.327Z,17.00
2023-02-18T11:57:30.655Z,17.20
2023-02-18T12:02:40.500Z,17.20
2023-02-18T12:08:07.815Z,16.80
2023-02-18T12:13:39.694Z,17.60
2023-02-18T12:19:21.332Z,18.30
2023-02-18T12:24:56.082Z,18.60
2023-02-18T12:30:32.892Z,17.40
2023-02-18T12:36:08.345Z,17.40
2023-02-18T12:41:45.106Z,17.90
2023-02-18T12:46:56.195Z,17.20
2023-02-18T12:52:15.258Z,16.90
2023-02-18T12:57:39.194Z,17.10
2023-02-18T13:02:54.284Z,16.70
2023-02-18T13:08:07.373Z,16.90
2023-02-18T13:13:17.470Z,16.40
2023-02-18T13:18:50.767Z,16.10
2023-02-18T13:24:01.388Z,15.90
2023-02-18T13:29:21.287Z,16.10
2023-02-18T13:35:00.280Z,15.80
2023-02-18T13:40:04.136Z,15.70
2023-02-18T13:45:22.979Z,15.70
2023-02-18T13:50:39.286Z,15.80
2023-02-18T13:56:16.347Z,15.70
2023-02-18T14:01:45.696Z,16.30
2023-02-18T14:07:25.224Z,16.30
2023-02-18T14:12:41.027Z,16.20
2023-02-18T14:17:47.936Z,15.80
2023-02-18T14:22:52.945Z,15.50
2023-02-18T14:27:55.297Z,15.40
2023-02-18T14:33:01.577Z,15.50
2023-02-18T14:38:23.274Z,15.40
2023-02-18T14:44:01.936Z,15.30
2023-02-18T14:49:28.855Z,15.10
2023-02-18T14:54:32.176Z,15.00
2023-02-18T14:59:44.143Z,15.00
2023-02-18T15:04:47.532Z,14.90
2023-02-18T15:09:54.808Z,15.10
2023-02-18T15:15:04.113Z,15.10
2023-02-18T15:20:08.193Z,15.10
2023-02-18T15:25:13.627Z,14.90
2023-02-18T15:30:31.484Z,14.90
2023-02-18T15:35:34.032Z,14.90
2023-02-18T15:40:40.521Z,15.00
2023-02-18T15:45:46.435Z,15.00
2023-02-18T15:51:11.251Z,14.90
2023-02-18T15:56:40.629Z,15.20
2023-02-18T16:01:47.272Z,15.10
2023-02-18T18:29:45.840Z,14.60
2023-02-18T18:34:49.124Z,13.70
2023-02-18T18:39:51.385Z,13.70
2023-02-18T18:44:53.515Z,13.80
2023-02-18T18:49:55.555Z,13.80
2023-02-18T18:54:57.908Z,14.10
2023-02-18T19:00:00.478Z,14.30
2023-02-18T19:05:04.377Z,14.00
2023-02-18T19:10:07.152Z,13.80
2023-02-18T19:15:21.096Z,13.80
2023-02-18T19:20:29.067Z,13.90
2023-02-18T19:25:32.218Z,14.30
2023-02-18T19:30:36.885Z,14.30
2023-02-18T19:35:41.113Z,14.00
2023-02-18T19:40:45.849Z,13.90
2023-02-18T19:45:47.959Z,14.20
2023-02-18T19:50:50.150Z,13.90
2023-02-18T19:56:06.829Z,14.10
2023-02-18T20:01:16.886Z,13.90
2023-02-18T20:06:21.094Z,13.90
2023-02-18T20:11:23.223Z,13.60
2023-02-18T20:16:25.316Z,13.90
